Aztec, New Mexico
Current Conditions -  °F | °C
As of 5:24 AM on Thursday 18 Dec 2014 (Local Time) from KFMN Reporting Station
Haze Haze  
Wind Chill:   Ceiling: Unl
Heat Index:   Visibility: 6mi
Dew Point:   Wind: 0mph
Humidity: 96%   Direction: NA
Pressure: 30.09"   Gusts: NA
Location:  36.83°N, 107.99°W
Report Text: KFMN 181224Z AUTO 00000KT 6SM BR FEW019 SCT045 01/00 A3009 RMK AO2 T00060000
Loading
Personal Weather Stations






























Interactive Weather Map New forecast layout! Learn more

10-Day Weather Forecast

Advertisements
Track Severe Weather on mobile